Time;durP1;ratioP1;P1;durP2;ratioP2;P2;SDS_P1;SDS_P2;PMS_P1;PMS_P2;Temp;Humidity;BMP_temperature;BMP_pressure;BME280_temperature;BME280_humidity;BME280_pressure;Samples;Min_cycle;Max_cycle;Signal;HPM_P1;HPM_P2
2021/03/22 00:01:25;;;;;;;27.08;3.70;;;;;;;5.63;89.38;101321.66;4944764;28;20087;-77
2021/03/22 00:03:50;;;;;;;23.80;3.28;;;;;;;5.41;91.00;101320.59;4960008;28;20039;-79
2021/03/22 00:06:16;;;;;;;21.23;2.97;;;;;;;5.40;91.99;101321.66;4948277;29;20126;-79
2021/03/22 00:08:41;;;;;;;18.88;3.15;;;;;;;5.36;91.63;101318.00;4954466;28;20125;-79
2021/03/22 00:11:06;;;;;;;21.02;3.72;;;;;;;5.69;90.71;101321.22;4944247;29;20058;-79
2021/03/22 00:13:32;;;;;;;30.13;4.03;;;;;;;5.83;89.49;101315.78;4950459;29;20035;-77
2021/03/22 00:16:03;;;;;;;16.85;3.53;;;;;;;5.79;89.75;101320.19;4958119;28;20038;-79
2021/03/22 00:18:31;;;;;;;18.50;3.20;;;;;;;5.72;89.66;101330.50;4953432;28;20444;-79
2021/03/22 00:20:57;;;;;;;16.13;3.17;;;;;;;5.55;90.42;101322.41;4957575;28;20037;-78
2021/03/22 00:23:23;;;;;;;22.50;3.58;;;;;;;5.58;90.73;101324.44;4953377;28;20110;-78
2021/03/22 00:25:49;;;;;;;21.52;3.53;;;;;;;5.66;90.47;101313.81;4950784;29;20206;-78
2021/03/22 00:28:16;;;;;;;21.10;2.92;;;;;;;5.61;90.79;101319.31;4956727;28;20159;-78
2021/03/22 00:30:44;;;;;;;21.10;3.08;;;;;;;5.39;90.91;101328.09;4961626;28;20061;-79
2021/03/22 00:33:11;;;;;;;16.67;2.72;;;;;;;5.44;91.39;101338.66;4949380;28;20059;-79
2021/03/22 00:35:37;;;;;;;15.18;3.03;;;;;;;5.56;90.32;101334.63;4958497;28;20031;-79
2021/03/22 00:38:03;;;;;;;22.08;3.47;;;;;;;5.65;90.17;101338.19;4960182;28;20039;-79
2021/03/22 00:40:32;;;;;;;23.80;2.92;;;;;;;5.69;89.75;101336.47;4948891;29;20077;-78
2021/03/22 00:42:58;;;;;;;18.58;2.72;;;;;;;5.66;89.88;101334.41;4957330;28;20046;-79
2021/03/22 00:45:24;;;;;;;20.05;3.40;;;;;;;5.60;90.23;101333.75;4957594;28;20036;-78
2021/03/22 00:47:51;;;;;;;18.73;3.10;;;;;;;5.62;89.87;101334.22;4948385;28;20125;-78
2021/03/22 00:50:38;;;;;;;20.77;3.30;;;;;;;5.53;90.42;101325.38;4946092;28;20145;-78
2021/03/22 00:53:05;;;;;;;19.38;2.97;;;;;;;5.40;91.08;101327.00;4947678;28;20078;-80
2021/03/22 00:55:31;;;;;;;18.10;3.05;;;;;;;5.44;91.09;101335.97;4951536;28;20031;-77
2021/03/22 00:57:57;;;;;;;18.52;3.22;;;;;;;5.56;90.55;101331.97;4951972;28;20114;-78
2021/03/22 01:00:32;;;;;;;26.40;3.20;;;;;;;5.53;90.50;101317.38;4951252;28;20461;-79
2021/03/22 01:02:58;;;;;;;17.50;2.88;;;;;;;5.49;90.38;101335.88;4950802;28;20388;-78
2021/03/22 01:05:24;;;;;;;21.92;2.78;;;;;;;5.48;90.17;101330.81;4955052;28;20036;-77
2021/03/22 01:07:50;;;;;;;14.73;3.42;;;;;;;5.45;90.41;101337.56;4946650;29;20461;-78
2021/03/22 01:10:25;;;;;;;16.85;3.20;;;;;;;5.46;90.61;101328.47;4959589;28;20066;-78
2021/03/22 01:12:51;;;;;;;15.10;3.33;;;;;;;5.43;90.53;101329.06;4950119;28;20035;-78
2021/03/22 01:15:16;;;;;;;25.85;3.30;;;;;;;5.43;90.59;101337.09;4945972;28;20050;-79
2021/03/22 01:17:42;;;;;;;23.48;3.17;;;;;;;5.43;90.23;101338.97;4951426;28;20039;-78
2021/03/22 01:20:19;;;;;;;28.92;3.95;;;;;;;5.42;90.95;101329.34;4944451;28;20093;-80
2021/03/22 01:22:45;;;;;;;24.92;3.22;;;;;;;5.32;91.26;101332.28;5006214;23;20042;-74
2021/03/22 01:25:11;;;;;;;17.95;2.63;;;;;;;5.17;91.74;101325.41;4994110;28;20053;-73
2021/03/22 01:27:41;;;;;;;26.20;3.67;;;;;;;5.25;91.60;101338.03;4995654;28;20026;-74
2021/03/22 01:30:17;;;;;;;21.35;3.33;;;;;;;5.18;91.53;101331.53;4993713;28;20034;-73
2021/03/22 01:32:42;;;;;;;21.73;3.20;;;;;;;5.22;91.45;101317.28;4979755;28;20447;-74
2021/03/22 01:35:09;;;;;;;22.65;3.55;;;;;;;5.23;92.21;101313.53;4968303;28;20134;-74
2021/03/22 01:37:34;;;;;;;22.60;3.15;;;;;;;5.27;91.74;101319.03;4974178;28;20590;-74
2021/03/22 01:40:00;;;;;;;19.20;3.15;;;;;;;5.06;92.33;101312.59;4974513;28;20038;-74
2021/03/22 01:42:51;;;;;;;20.85;3.38;;;;;;;4.80;93.73;101314.25;4980898;28;20033;-74
2021/03/22 01:45:17;;;;;;;21.52;2.97;;;;;;;4.91;93.24;101311.06;4981107;28;20035;-74
2021/03/22 01:47:42;;;;;;;15.07;3.05;;;;;;;4.73;94.83;101303.97;4973132;28;20407;-74
2021/03/22 01:50:13;;;;;;;20.88;3.30;;;;;;;4.97;93.39;101320.53;4970819;28;20121;-74
2021/03/22 01:52:41;;;;;;;18.40;2.97;;;;;;;4.79;93.77;101324.13;4974358;28;20042;-74
2021/03/22 01:55:08;;;;;;;21.75;3.13;;;;;;;4.75;94.32;101322.34;4974570;28;20039;-74
2021/03/22 01:57:53;;;;;;;19.10;2.75;;;;;;;4.77;94.01;101314.84;4971659;28;20122;-74
2021/03/22 02:00:33;;;;;;;23.77;2.75;;;;;;;4.70;94.12;101315.25;4971619;28;20141;-74
2021/03/22 02:03:09;;;;;;;19.02;2.95;;;;;;;4.78;93.75;101316.44;4982533;28;20391;-74
2021/03/22 02:05:37;;;;;;;17.25;3.40;;;;;;;4.76;94.08;101319.41;4972285;28;20039;-74
2021/03/22 02:08:03;;;;;;;18.98;3.55;;;;;;;4.68;94.73;101321.97;4981626;28;20033;-74
2021/03/22 02:10:28;;;;;;;21.00;3.88;;;;;;;4.79;93.77;101324.13;4971593;28;20042;-74
2021/03/22 02:12:54;;;;;;;16.60;2.85;;;;;;;4.97;92.89;101325.88;4968987;28;20042;-74
2021/03/22 02:15:20;;;;;;;19.88;3.40;;;;;;;4.93;92.54;101324.09;4970083;28;20483;-74
2021/03/22 02:17:58;;;;;;;17.98;2.63;;;;;;;4.93;92.45;101324.09;4982310;28;20462;-74
2021/03/22 02:21:02;;;;;;;12.75;2.65;;;;;;;4.88;93.01;101326.88;4973271;28;20496;-74
2021/03/22 02:23:33;;;;;;;20.30;3.83;;;;;;;4.88;92.78;101324.22;4946697;28;20062;-74
2021/03/22 02:26:32;;;;;;;20.58;2.88;;;;;;;4.81;93.12;101326.50;4971304;28;20459;-74
2021/03/22 02:29:11;;;;;;;19.42;3.38;;;;;;;4.79;93.62;101328.66;4977444;28;20081;-74
2021/03/22 02:31:50;;;;;;;25.58;3.40;;;;;;;4.71;94.44;101321.34;4982839;28;20052;-74
2021/03/22 02:34:22;;;;;;;25.45;3.42;;;;;;;4.68;94.71;101320.09;4982886;28;20027;-75
2021/03/22 02:37:04;;;;;;;21.35;3.58;;;;;;;4.78;94.24;101321.75;4978555;28;20043;-75
2021/03/22 02:39:34;;;;;;;24.90;3.08;;;;;;;4.67;94.00;101321.16;4978646;28;20573;-75
2021/03/22 02:42:01;;;;;;;16.05;2.60;;;;;;;4.68;94.25;101332.63;4970502;28;20475;-75
2021/03/22 02:44:33;;;;;;;19.73;3.63;;;;;;;4.75;93.59;101323.13;4971834;28;20039;-75
2021/03/22 02:47:02;;;;;;;30.92;4.15;;;;;;;4.71;93.43;101327.50;4976661;28;20030;-75
2021/03/22 02:49:33;;;;;;;22.10;3.45;;;;;;;4.72;93.73;101323.75;4970327;28;20034;-75
2021/03/22 02:52:26;;;;;;;22.80;3.15;;;;;;;4.57;93.98;101326.72;4984862;28;20046;-75
2021/03/22 02:54:56;;;;;;;16.77;3.28;;;;;;;4.29;95.36;101315.28;4973635;28;20034;-74
2021/03/22 02:57:47;;;;;;;22.85;3.40;;;;;;;4.40;96.26;101313.19;4967628;28;20488;-75
2021/03/22 03:00:28;;;;;;;17.80;3.65;;;;;;;4.50;94.93;101313.78;4968049;28;20046;-74
2021/03/22 03:02:58;;;;;;;21.05;3.50;;;;;;;4.37;95.36;101319.13;4985816;28;20677;-74
2021/03/22 03:05:27;;;;;;;21.42;3.38;;;;;;;4.29;95.50;101311.81;4976634;28;20585;-74
2021/03/22 03:08:02;;;;;;;22.13;3.20;;;;;;;3.94;97.29;101307.94;4970260;28;20066;-74
2021/03/22 03:10:28;;;;;;;24.83;3.97;;;;;;;4.00;97.57;101314.75;4964266;28;20547;-74
2021/03/22 03:12:54;;;;;;;21.33;3.20;;;;;;;4.02;97.61;101315.25;4972496;28;20068;-74
2021/03/22 03:15:22;;;;;;;24.63;3.70;;;;;;;4.04;97.72;101323.75;4982289;28;20515;-74
2021/03/22 03:17:49;;;;;;;25.85;4.25;;;;;;;4.08;98.15;101330.06;4976279;28;20576;-74
2021/03/22 03:20:18;;;;;;;27.88;3.33;;;;;;;4.08;97.36;101331.94;4961309;28;20038;-74
2021/03/22 03:22:44;;;;;;;17.70;3.70;;;;;;;3.90;98.19;101335.44;4971494;28;20406;-74
2021/03/22 03:25:31;;;;;;;20.92;3.63;;;;;;;4.02;98.29;101344.56;4970947;28;20137;-74
2021/03/22 03:27:57;;;;;;;21.02;3.83;;;;;;;4.23;97.05;101342.31;4977827;28;20061;-74
2021/03/22 03:30:26;;;;;;;23.52;3.83;;;;;;;4.18;96.88;101340.53;4951378;28;20058;-74
2021/03/22 03:32:53;;;;;;;26.88;3.03;;;;;;;4.15;97.03;101346.47;4974118;28;20126;-74
2021/03/22 03:35:23;;;;;;;20.52;3.13;;;;;;;4.35;96.04;101347.97;4970538;28;20038;-74
2021/03/22 03:37:48;;;;;;;25.13;3.80;;;;;;;4.35;95.76;101347.97;4969767;28;20050;-74
2021/03/22 03:40:37;;;;;;;28.67;4.40;;;;;;;4.32;95.66;101351.19;4966700;28;20051;-74
2021/03/22 03:43:03;;;;;;;23.40;3.42;;;;;;;4.23;96.38;101344.97;4969425;28;20049;-74
2021/03/22 03:45:31;;;;;;;27.25;3.30;;;;;;;4.18;97.30;101345.09;4967644;28;20042;-74
2021/03/22 03:47:57;;;;;;;24.23;3.67;;;;;;;4.09;97.79;101349.50;4953077;28;20050;-75
2021/03/22 03:50:28;;;;;;;25.77;3.22;;;;;;;4.19;97.66;101359.97;4963878;28;20086;-74
2021/03/22 03:52:54;;;;;;;;;;;;;;;4.02;98.77;101355.22;4964527;28;20042;-74
2021/03/22 03:55:22;;;;;;;19.92;3.67;;;;;;;4.11;98.55;101360.66;4953683;28;19960;-74
2021/03/22 03:57:49;;;;;;;20.88;3.28;;;;;;;4.27;97.29;101365.44;4969976;28;20474;-74
2021/03/22 04:00:23;;;;;;;22.25;4.00;;;;;;;4.25;97.37;101361.47;4966764;28;20038;-74
2021/03/22 04:02:48;;;;;;;22.25;3.20;;;;;;;4.27;97.20;101361.97;4970717;28;20050;-74
2021/03/22 04:05:14;;;;;;;23.33;3.53;;;;;;;4.24;98.06;101373.22;4966465;28;20042;-74
2021/03/22 04:07:40;;;;;;;31.40;3.95;;;;;;;4.34;97.36;101375.69;4977540;28;20109;-75
2021/03/22 04:10:05;;;;;;;25.80;3.70;;;;;;;4.31;97.33;101382.41;4980834;28;20057;-74
2021/03/22 04:12:31;;;;;;;17.80;3.45;;;;;;;4.12;97.97;101381.66;4975505;28;20046;-75
2021/03/22 04:14:57;;;;;;;31.05;4.80;;;;;;;4.20;98.11;101369.56;4973386;28;20035;-74
2021/03/22 04:17:22;;;;;;;20.20;4.00;;;;;;;4.06;98.89;101369.53;4972504;28;20037;-75
2021/03/22 04:19:48;;;;;;;23.73;3.15;;;;;;;4.13;98.86;101375.28;4975713;28;20395;-75
2021/03/22 04:22:13;;;;;;;24.15;3.10;;;;;;;4.27;97.98;101367.28;4966635;28;20031;-74
2021/03/22 04:24:38;;;;;;;22.52;3.28;;;;;;;4.23;98.28;101379.63;4971443;28;20038;-75
2021/03/22 04:27:04;;;;;;;27.10;4.07;;;;;;;4.11;98.66;101380.09;4981339;28;20043;-75
2021/03/22 04:29:30;;;;;;;22.35;4.03;;;;;;;4.04;99.22;101387.69;4970890;28;20039;-74
2021/03/22 04:31:55;;;;;;;26.55;3.78;;;;;;;4.10;99.32;101377.75;4968506;28;20053;-75
2021/03/22 04:34:21;;;;;;;22.73;3.33;;;;;;;4.25;98.30;101378.25;4977769;28;20026;-75
2021/03/22 04:36:46;;;;;;;21.40;3.88;;;;;;;4.22;98.19;101389.50;4967758;28;20114;-75
2021/03/22 04:39:12;;;;;;;29.20;4.13;;;;;;;4.17;98.02;101389.59;4997075;28;20102;-75
2021/03/22 04:41:39;;;;;;;33.10;4.18;;;;;;;4.16;98.46;101395.22;4974910;28;20126;-75
2021/03/22 04:44:06;;;;;;;27.45;3.55;;;;;;;4.02;99.21;101394.41;4971089;28;20038;-75
2021/03/22 04:46:32;;;;;;;21.88;3.95;;;;;;;3.94;99.98;101400.38;4971252;28;20109;-75
2021/03/22 04:48:58;;;;;;;21.52;3.25;;;;;;;3.94;100.00;101398.50;4978421;28;20043;-75
2021/03/22 04:51:23;;;;;;;27.45;4.53;;;;;;;3.94;100.00;101389.72;4976113;28;20062;-74
2021/03/22 04:53:49;;;;;;;27.77;3.92;;;;;;;3.79;100.00;101396.09;4968951;28;20057;-74
2021/03/22 04:56:14;;;;;;;15.52;4.10;;;;;;;3.84;100.00;101397.88;4979068;28;20045;-75
2021/03/22 04:58:40;;;;;;;28.60;4.20;;;;;;;3.72;100.00;101408.22;4971939;28;20034;-74
2021/03/22 05:01:08;;;;;;;29.60;4.20;;;;;;;3.71;100.00;101411.94;4966205;28;20391;-74
2021/03/22 05:03:34;;;;;;;18.83;4.43;;;;;;;3.99;100.00;101405.66;4976513;28;20201;-74
2021/03/22 05:06:01;;;;;;;25.83;4.50;;;;;;;3.95;100.00;101404.66;4979997;28;20046;-75
2021/03/22 05:08:27;;;;;;;31.45;4.20;;;;;;;3.96;100.00;101407.00;4987488;28;20039;-74
2021/03/22 05:10:55;;;;;;;20.58;4.05;;;;;;;3.96;100.00;101409.69;4969499;28;20579;-74
2021/03/22 05:13:23;;;;;;;22.88;3.60;;;;;;;3.93;100.00;101409.47;4971506;28;20027;-76
2021/03/22 05:15:49;;;;;;;27.65;4.10;;;;;;;4.03;100.00;101419.94;4988850;28;20030;-76
2021/03/22 05:18:15;;;;;;;33.40;5.00;;;;;;;4.11;100.00;101416.59;4974044;28;20047;-77
2021/03/22 05:20:47;;;;;;;20.95;4.43;;;;;;;4.17;100.00;101418.09;4971274;28;20034;-74
2021/03/22 05:23:16;;;;;;;23.35;4.50;;;;;;;4.29;100.00;101415.78;4982597;28;20026;-74
2021/03/22 05:25:42;;;;;;;25.13;4.57;;;;;;;4.33;100.00;101416.78;4975727;28;20730;-74
2021/03/22 05:28:08;;;;;;;28.58;4.20;;;;;;;4.42;100.00;101426.47;4976467;28;20061;-76
2021/03/22 05:30:36;;;;;;;37.55;4.90;;;;;;;4.55;100.00;101435.53;4972962;28;20495;-75
2021/03/22 05:33:05;;;;;;;28.35;5.35;;;;;;;4.48;100.00;101429.81;4980320;28;20038;-74
2021/03/22 05:35:31;;;;;;;29.55;4.88;;;;;;;4.41;100.00;101426.75;4982142;28;20045;-74
2021/03/22 05:37:57;;;;;;;27.00;5.32;;;;;;;4.51;100.00;101434.53;4980526;28;20042;-74
2021/03/22 05:40:36;;;;;;;35.40;5.45;;;;;;;4.61;100.00;101431.69;4978368;28;20113;-75
2021/03/22 05:43:02;;;;;;;30.88;5.45;;;;;;;4.72;100.00;101437.66;4974854;28;20246;-74
2021/03/22 05:45:47;;;;;;;36.20;5.90;;;;;;;4.80;100.00;101445.72;4970300;28;20066;-74
2021/03/22 05:48:35;;;;;;;33.03;5.53;;;;;;;4.87;100.00;101434.69;4975539;28;20177;-76
2021/03/22 05:51:38;;;;;;;38.70;6.18;;;;;;;4.90;100.00;101442.06;4971923;28;20121;-76
2021/03/22 05:54:28;;;;;;;30.73;6.13;;;;;;;4.77;100.00;101433.00;4977536;28;20034;-76
2021/03/22 05:57:04;;;;;;;34.47;6.00;;;;;;;4.85;100.00;101439.53;4977485;28;20097;-76
2021/03/22 05:59:45;;;;;;;31.15;4.80;;;;;;;4.96;100.00;101444.34;4955463;28;20026;-76
2021/03/22 06:02:20;;;;;;;36.47;5.57;;;;;;;4.80;100.00;101440.41;4978918;28;20483;-75
2021/03/22 06:04:51;;;;;;;26.63;5.25;;;;;;;4.87;100.00;101446.16;4978510;28;20046;-76
2021/03/22 06:07:21;;;;;;;32.63;5.57;;;;;;;4.86;100.00;101446.44;4981787;28;20081;-76
2021/03/22 06:10:17;;;;;;;25.75;5.65;;;;;;;4.91;100.00;101444.47;4972259;28;20046;-76
2021/03/22 06:12:48;;;;;;;15.25;4.40;;;;;;;4.93;100.00;101433.50;4966739;28;20023;-76
2021/03/22 06:15:34;;;;;;;25.88;5.13;;;;;;;4.99;100.00;101440.31;4971795;28;20038;-76
2021/03/22 06:18:27;;;;;;;24.17;5.43;;;;;;;5.04;100.00;101449.00;4990038;28;20042;-75
2021/03/22 06:20:56;;;;;;;23.17;5.07;;;;;;;5.06;100.00;101454.84;4972465;28;20033;-76
2021/03/22 06:23:36;;;;;;;32.10;6.03;;;;;;;5.15;100.00;101453.03;4976309;28;20054;-76
2021/03/22 06:26:18;;;;;;;22.15;5.10;;;;;;;5.14;100.00;101459.47;4972081;28;20401;-76
2021/03/22 06:28:47;;;;;;;19.40;5.20;;;;;;;5.15;100.00;101466.38;4966902;28;20104;-75
2021/03/22 06:31:18;;;;;;;28.42;5.82;;;;;;;5.25;100.00;101471.53;4977233;28;20109;-76
2021/03/22 06:33:46;;;;;;;24.83;5.53;;;;;;;5.28;100.00;101470.16;4980374;28;20031;-76
2021/03/22 06:36:17;;;;;;;28.73;5.95;;;;;;;5.18;100.00;101473.81;4970803;28;20045;-76
2021/03/22 06:38:45;;;;;;;22.98;4.63;;;;;;;5.28;100.00;101480.81;4968761;28;20026;-75
2021/03/22 06:41:31;;;;;;;34.80;5.95;;;;;;;5.20;100.00;101476.19;4974292;28;20042;-76
2021/03/22 06:44:00;;;;;;;29.92;5.90;;;;;;;5.24;100.00;101482.50;4964139;28;20038;-76
2021/03/22 06:46:27;;;;;;;21.33;5.05;;;;;;;5.15;100.00;101479.72;4959505;28;20027;-74
2021/03/22 06:49:02;;;;;;;22.75;5.72;;;;;;;5.30;100.00;101492.75;4970438;28;20081;-74
2021/03/22 06:51:29;;;;;;;24.38;4.65;;;;;;;5.33;100.00;101494.84;4967277;28;20388;-75
2021/03/22 06:54:01;;;;;;;29.88;5.15;;;;;;;5.45;100.00;101491.69;4978022;28;20772;-76
2021/03/22 06:56:34;;;;;;;20.55;4.80;;;;;;;5.42;100.00;101498.41;4973199;28;20030;-75
2021/03/22 06:59:13;;;;;;;21.10;5.30;;;;;;;5.41;100.00;101485.34;4975881;28;20042;-72
2021/03/22 07:01:41;;;;;;;26.33;5.43;;;;;;;5.53;100.00;101494.41;4968907;28;20047;-76
2021/03/22 07:04:20;;;;;;;20.77;5.20;;;;;;;5.56;100.00;101490.34;4967427;28;20039;-76
2021/03/22 07:07:06;;;;;;;24.23;6.10;;;;;;;5.52;100.00;101502.72;4958727;28;21448;-74
2021/03/22 07:09:35;;;;;;;21.88;5.90;;;;;;;5.55;100.00;101501.34;4964485;28;20495;-76
2021/03/22 07:12:01;;;;;;;21.60;5.65;;;;;;;5.62;100.00;101496.38;4967595;28;20468;-75
2021/03/22 07:14:29;;;;;;;28.55;5.55;;;;;;;5.77;100.00;101506.75;4971999;28;20403;-76
2021/03/22 07:17:06;;;;;;;21.17;5.00;;;;;;;5.65;100.00;101501.94;4963978;28;20023;-75
2021/03/22 07:19:33;;;;;;;19.58;4.68;;;;;;;5.64;100.00;101512.91;4989497;28;20430;-74
2021/03/22 07:22:03;;;;;;;18.33;5.57;;;;;;;5.73;100.00;101516.47;4995708;23;20074;-80
2021/03/22 07:24:37;;;;;;;18.67;5.70;;;;;;;5.69;100.00;101518.16;4998508;28;20038;-81
2021/03/22 07:27:19;;;;;;;17.83;5.57;;;;;;;5.69;100.00;101518.91;4992327;28;20294;-82
2021/03/22 07:30:03;;;;;;;13.70;5.20;;;;;;;5.75;100.00;101517.72;4978669;28;20057;-80
2021/03/22 07:32:59;;;;;;;23.80;5.60;;;;;;;5.90;100.00;101519.31;4997180;28;20039;-79
2021/03/22 07:35:28;;;;;;;20.48;5.55;;;;;;;5.83;100.00;101510.88;4971739;28;20671;-82
2021/03/22 07:38:23;;;;;;;25.98;5.40;;;;;;;5.95;100.00;101514.63;4979363;28;20113;-79
2021/03/22 07:41:13;;;;;;;23.58;5.80;;;;;;;5.98;100.00;101508.69;4966098;28;20034;-79
2021/03/22 07:44:07;;;;;;;16.13;4.82;;;;;;;6.20;100.00;101521.28;4966181;28;20026;-79
2021/03/22 07:46:54;;;;;;;23.27;5.07;;;;;;;6.21;99.51;101520.19;4964315;28;20102;-80
2021/03/22 07:49:59;;;;;;;20.88;5.65;;;;;;;6.27;98.82;101516.31;4968127;28;20045;-80
2021/03/22 07:52:33;;;;;;;20.83;5.10;;;;;;;6.30;98.65;101523.72;4972030;28;20035;-80
2021/03/22 07:55:20;;;;;;;13.80;4.80;;;;;;;6.32;99.01;101525.00;4965060;28;20050;-80
2021/03/22 07:57:50;;;;;;;17.67;5.43;;;;;;;6.25;98.34;101513.16;4972384;28;20134;-80
2021/03/22 08:00:19;;;;;;;20.77;4.93;;;;;;;6.19;97.88;101515.13;4971792;28;20046;-80
2021/03/22 08:03:05;;;;;;;20.27;5.10;;;;;;;6.16;98.12;101518.41;4987234;28;20042;-79
2021/03/22 08:05:44;;;;;;;14.02;4.57;;;;;;;6.27;97.04;101519.75;4972775;28;20039;-80
2021/03/22 08:08:24;;;;;;;14.75;4.88;;;;;;;6.30;97.48;101521.03;4975485;28;20105;-80
2021/03/22 08:11:02;;;;;;;21.30;5.43;;;;;;;6.50;97.30;101525.09;4956039;28;20038;-80
2021/03/22 08:13:43;;;;;;;14.77;5.47;;;;;;;6.47;96.85;101529.16;4988939;28;20304;-79
2021/03/22 08:16:16;;;;;;;21.45;4.60;;;;;;;6.42;97.24;101529.31;4986697;28;20031;-79
2021/03/22 08:18:49;;;;;;;18.92;4.85;;;;;;;6.56;96.87;101532.72;4976446;28;20049;-79
2021/03/22 08:21:20;;;;;;;22.15;5.72;;;;;;;6.91;96.84;101533.69;4974216;28;20044;-79
2021/03/22 08:24:12;;;;;;;20.13;5.65;;;;;;;7.08;95.96;101542.56;4983143;28;20037;-79
2021/03/22 08:26:43;;;;;;;20.55;5.15;;;;;;;7.24;94.86;101542.94;4973995;28;20119;-80
2021/03/22 08:29:18;;;;;;;25.67;5.05;;;;;;;7.26;93.13;101543.41;4975558;28;20041;-78
2021/03/22 08:31:50;;;;;;;16.23;4.50;;;;;;;7.57;92.63;101541.44;4968936;28;20969;-80
2021/03/22 08:34:26;;;;;;;16.55;4.45;;;;;;;7.57;90.91;101535.31;4989764;28;20191;-80
2021/03/22 08:37:16;;;;;;;12.02;4.68;;;;;;;7.84;90.70;101540.41;4953970;28;20635;-80
2021/03/22 08:39:53;;;;;;;13.77;4.27;;;;;;;8.27;89.81;101537.75;4971821;28;20035;-79
2021/03/22 08:42:22;;;;;;;16.73;4.20;;;;;;;8.66;87.41;101541.00;4970894;28;20038;-80
2021/03/22 08:45:04;;;;;;;13.15;4.22;;;;;;;9.15;85.03;101544.97;4981776;28;20069;-80
2021/03/22 08:47:39;;;;;;;18.10;4.80;;;;;;;9.18;83.30;101540.81;4971633;28;20039;-80
2021/03/22 08:50:26;;;;;;;19.42;4.47;;;;;;;9.49;82.27;101534.03;4964405;28;20053;-81
2021/03/22 08:52:54;;;;;;;18.80;4.55;;;;;;;9.85;79.85;101538.88;4976046;28;20063;-80
2021/03/22 08:55:22;;;;;;;12.55;4.22;;;;;;;10.00;78.21;101527.50;4977490;28;20042;-80
2021/03/22 08:57:59;;;;;;;13.07;4.38;;;;;;;10.34;78.27;101529.94;4978438;28;20469;-80
2021/03/22 09:00:46;;;;;;;13.38;3.78;;;;;;;10.79;74.88;101546.91;4970871;28;20369;-80
2021/03/22 09:03:15;;;;;;;13.25;3.75;;;;;;;11.12;72.63;101551.44;4987346;28;20045;-79
2021/03/22 09:06:03;;;;;;;13.00;3.70;;;;;;;11.49;70.05;101547.63;4965990;28;20117;-80
2021/03/22 09:08:31;;;;;;;17.00;3.85;;;;;;;11.60;67.56;101541.44;4969652;28;20027;-80
2021/03/22 09:11:15;;;;;;;16.73;4.70;;;;;;;11.91;67.64;101546.22;4963318;28;20157;-80
2021/03/22 09:13:50;;;;;;;14.30;3.47;;;;;;;12.07;66.32;101547.09;4964557;28;20078;-80
2021/03/22 09:16:24;;;;;;;14.70;3.80;;;;;;;12.07;64.55;101551.69;4981368;28;20105;-80
2021/03/22 09:19:14;;;;;;;11.68;3.70;;;;;;;12.40;65.06;101539.53;4968712;28;20041;-82
2021/03/22 09:21:51;;;;;;;10.80;3.60;;;;;;;12.96;62.78;101547.56;4968022;28;20043;-80
2021/03/22 09:27:16;;;;;;;10.40;3.50;;;;;;;13.25;59.68;101536.31;4964288;28;20058;-80
2021/03/22 09:30:10;;;;;;;12.70;3.38;;;;;;;13.39;58.49;101529.31;4968899;28;20066;-80
2021/03/22 09:32:36;;;;;;;13.75;3.50;;;;;;;13.57;57.86;101532.41;4961801;28;20038;-80
2021/03/22 09:35:16;;;;;;;8.05;3.17;;;;;;;13.68;57.63;101538.88;4971114;28;20085;-79
2021/03/22 09:37:59;;;;;;;13.52;3.45;;;;;;;13.95;55.73;101545.25;4970752;28;20471;-80
2021/03/22 09:40:26;;;;;;;13.15;3.20;;;;;;;14.22;54.66;101534.22;4966020;28;20081;-80
2021/03/22 09:43:13;;;;;;;12.18;3.15;;;;;;;14.07;52.90;101539.69;4971996;28;20049;-79
2021/03/22 09:45:54;;;;;;;12.05;3.38;;;;;;;14.11;54.44;101538.63;4970777;28;20031;-80
2021/03/22 09:48:44;;;;;;;15.27;3.55;;;;;;;14.85;53.28;101539.25;4971634;28;20096;-78
2021/03/22 09:51:09;;;;;;;12.50;3.58;;;;;;;15.21;51.55;101544.13;4968716;28;20129;-80
2021/03/22 09:53:41;;;;;;;12.15;3.50;;;;;;;15.33;51.61;101542.00;4969137;28;20587;-80
2021/03/22 09:56:21;;;;;;;10.93;3.75;;;;;;;15.47;51.56;101543.38;4970176;28;20035;-80
2021/03/22 09:58:47;;;;;;;13.00;3.65;;;;;;;15.36;51.63;101556.78;4974257;28;20046;-80
2021/03/22 10:01:18;;;;;;;12.82;3.70;;;;;;;15.25;51.99;101545.75;4973306;28;20061;-80
2021/03/22 10:04:09;;;;;;;11.60;3.30;;;;;;;15.36;51.00;101552.13;4954751;29;20496;-81
2021/03/22 10:06:38;;;;;;;8.98;3.45;;;;;;;15.13;50.76;101543.25;4968712;28;20062;-79
2021/03/22 10:09:03;;;;;;;10.02;3.33;;;;;;;15.22;50.63;101545.69;4973616;28;20037;-79
2021/03/22 10:11:36;;;;;;;12.82;3.33;;;;;;;14.91;50.71;101537.81;4971866;28;20031;-79
2021/03/22 10:14:04;;;;;;;12.55;3.28;;;;;;;15.17;50.63;101535.16;4967815;28;20042;-79
2021/03/22 10:16:39;;;;;;;9.70;3.40;;;;;;;15.43;50.72;101540.63;4972796;28;20031;-80
2021/03/22 10:19:16;;;;;;;12.80;3.35;;;;;;;15.60;49.67;101531.94;4985367;28;20045;-79
2021/03/22 10:21:46;;;;;;;11.75;3.35;;;;;;;15.64;49.67;101538.22;4968624;28;20034;-79
2021/03/22 10:24:27;;;;;;;7.15;2.65;;;;;;;15.53;48.50;101536.50;4972864;28;20504;-78
2021/03/22 10:26:57;;;;;;;11.02;2.45;;;;;;;15.72;47.68;101533.66;4976074;28;20414;-78
2021/03/22 10:29:23;;;;;;;10.05;3.13;;;;;;;15.49;48.81;101530.22;4973245;28;20046;-79
2021/03/22 10:32:07;;;;;;;5.05;2.20;;;;;;;15.64;48.99;101519.19;4970864;28;20043;-78
2021/03/22 10:34:43;;;;;;;12.13;3.38;;;;;;;15.90;49.32;101537.41;4965717;28;20117;-78
2021/03/22 10:37:13;;;;;;;8.27;3.13;;;;;;;15.92;48.80;101533.16;4975960;28;20058;-79
2021/03/22 10:39:45;;;;;;;12.10;4.05;;;;;;;16.05;48.01;101545.38;4970081;28;20155;-78
2021/03/22 10:42:26;;;;;;;9.85;3.50;;;;;;;15.97;47.46;101542.91;4960865;28;20030;-78
2021/03/22 10:44:55;;;;;;;8.80;3.00;;;;;;;16.01;47.75;101539.09;4968680;28;20042;-80
2021/03/22 10:47:24;;;;;;;10.43;2.95;;;;;;;15.82;48.26;101546.59;4971015;28;20042;-78
2021/03/22 10:49:51;;;;;;;12.68;3.72;;;;;;;15.90;47.71;101545.56;4967915;28;20809;-79
2021/03/22 10:52:33;;;;;;;7.28;3.03;;;;;;;16.04;47.42;101538.38;4968129;28;20034;-79
2021/03/22 10:54:59;;;;;;;12.07;2.97;;;;;;;15.99;47.88;101537.91;4972941;28;20031;-79
2021/03/22 10:57:29;;;;;;;8.90;2.83;;;;;;;16.43;47.02;101527.16;4984290;28;20517;-79
2021/03/22 10:59:58;;;;;;;7.55;2.80;;;;;;;16.39;46.68;101542.66;4971993;28;20047;-80
2021/03/22 11:02:36;;;;;;;7.97;2.30;;;;;;;16.42;46.19;101536.47;4968070;28;20023;-80
2021/03/22 11:05:08;;;;;;;8.18;2.33;;;;;;;16.36;45.23;101541.44;4989540;28;20154;-79
2021/03/22 11:07:34;;;;;;;10.68;2.45;;;;;;;16.13;45.27;101541.59;4969275;28;20494;-80
2021/03/22 11:10:11;;;;;;;7.93;2.28;;;;;;;15.94;45.62;101549.09;4970119;28;20027;-79
2021/03/22 11:12:41;;;;;;;7.55;2.70;;;;;;;16.09;46.25;101554.34;4972007;28;20046;-80
2021/03/22 11:15:15;;;;;;;8.18;3.00;;;;;;;16.30;46.15;101555.75;4981223;28;20038;-79
2021/03/22 11:17:45;;;;;;;16.20;2.90;;;;;;;16.12;45.63;101550.13;4972855;28;20039;-79
2021/03/22 11:20:31;;;;;;;8.68;2.53;;;;;;;16.03;46.33;101550.38;4965154;28;20113;-80
2021/03/22 11:23:26;;;;;;;15.52;2.85;;;;;;;16.61;45.29;101558.06;4950242;28;20138;-79
2021/03/22 11:25:54;;;;;;;7.70;2.55;;;;;;;16.29;45.40;101552.25;4941359;29;20109;-80
2021/03/22 11:28:20;;;;;;;9.93;2.85;;;;;;;16.05;45.63;101550.00;4949394;28;20126;-78
2021/03/22 11:30:54;;;;;;;7.30;2.33;;;;;;;16.13;46.76;101547.03;4949625;28;20472;-80
2021/03/22 11:33:27;;;;;;;5.95;2.67;;;;;;;16.44;46.82;101545.03;4937041;29;20053;-79
2021/03/22 11:36:15;;;;;;;6.57;2.47;;;;;;;16.49;44.87;101545.50;4945455;29;20046;-79
2021/03/22 11:38:48;;;;;;;9.50;2.67;;;;;;;16.55;44.67;101548.69;4949587;28;20039;-78
2021/03/22 11:41:36;;;;;;;13.50;2.60;;;;;;;16.68;45.35;101556.22;4934036;29;20412;-79
2021/03/22 11:44:20;;;;;;;8.82;2.70;;;;;;;16.23;45.16;101559.97;4948374;28;20046;-79
2021/03/22 11:46:51;;;;;;;7.13;2.88;;;;;;;16.14;45.89;101559.44;4950928;28;20054;-78
2021/03/22 11:49:41;;;;;;;5.18;2.28;;;;;;;15.89;45.52;101547.47;4950549;28;20032;-79
2021/03/22 11:52:38;;;;;;;3.97;2.00;;;;;;;15.84;46.09;101549.72;4948384;29;20050;-79